EZY2753 EGGD-GMAD
Flight info
| Callsign | EZY2753 |
|---|---|
| Flight time | N/A |
| Altitude | 35000 |
| Route | EXMOR N92 DAWLY DCT BHD DCT SALCO DCT EBOMO DCT BALDA DCT BATAX DCT PINOX DCT TOFEF DCT VFA DCT OSLAD UR724 AGALI |
| Aircraft | A320/M-SDE2E3FGHIJ1RWXYZ/LB1 |
Departure
| Time | 2026-05-07 13:43 |
|---|---|
| Airport | Bristol Airport (EGGD) |
Arrival
| Time | N/A |
|---|---|
| Airport | Al Massira Airport (GMAD) |
| Time | Latitude | Longitude | Altitude | Speed | Heading |
|---|---|---|---|---|---|
| 2026-05-07 13:00 | 51.38551 | -2.71538 | 595 ft | 0 kts | 356° |
| 2026-05-07 13:33 | 51.38541 | -2.71537 | 595 ft | 2 kts | 356° |
| 2026-05-07 13:33 | 51.38526 | -2.71536 | 596 ft | 2 kts | 356° |
| 2026-05-07 13:34 | 51.38511 | -2.71534 | 596 ft | 2 kts | 356° |
| 2026-05-07 13:34 | 51.38487 | -2.71528 | 597 ft | 2 kts | 337° |
| 2026-05-07 13:34 | 51.38473 | -2.71516 | 597 ft | 2 kts | 324° |
| 2026-05-07 13:35 | 51.38462 | -2.71500 | 597 ft | 2 kts | 311° |
| 2026-05-07 13:35 | 51.38452 | -2.71480 | 598 ft | 2 kts | 298° |
| 2026-05-07 13:35 | 51.38447 | -2.71458 | 598 ft | 2 kts | 285° |
| 2026-05-07 13:35 | 51.38444 | -2.71434 | 598 ft | 2 kts | 271° |
| 2026-05-07 13:36 | 51.38444 | -2.71421 | 598 ft | 1 kts | 264° |
| 2026-05-07 13:36 | 51.38444 | -2.71417 | 598 ft | 0 kts | 266° |
| 2026-05-07 13:37 | 51.38444 | -2.71434 | 598 ft | 4 kts | 266° |
| 2026-05-07 13:37 | 51.38442 | -2.71493 | 598 ft | 7 kts | 266° |
| 2026-05-07 13:37 | 51.38438 | -2.71601 | 600 ft | 10 kts | 266° |
| 2026-05-07 13:38 | 51.38433 | -2.71717 | 601 ft | 10 kts | 269° |
| 2026-05-07 13:38 | 51.38441 | -2.71861 | 603 ft | 12 kts | 276° |
| 2026-05-07 13:38 | 51.38432 | -2.72005 | 604 ft | 14 kts | 264° |
| 2026-05-07 13:38 | 51.38424 | -2.72179 | 607 ft | 16 kts | 267° |
| 2026-05-07 13:39 | 51.38417 | -2.72359 | 611 ft | 15 kts | 266° |
| 2026-05-07 13:39 | 51.38411 | -2.72524 | 612 ft | 14 kts | 266° |
| 2026-05-07 13:39 | 51.38404 | -2.72693 | 613 ft | 15 kts | 266° |
| 2026-05-07 13:39 | 51.38395 | -2.72892 | 609 ft | 19 kts | 266° |
| 2026-05-07 13:40 | 51.38389 | -2.73106 | 603 ft | 13 kts | 265° |
| 2026-05-07 13:40 | 51.38387 | -2.73143 | 601 ft | 0 kts | 265° |
| 2026-05-07 13:41 | 51.38387 | -2.73145 | 601 ft | 2 kts | 265° |
| 2026-05-07 13:41 | 51.38383 | -2.73222 | 598 ft | 10 kts | 262° |
| 2026-05-07 13:41 | 51.38338 | -2.73327 | 596 ft | 12 kts | 203° |
| 2026-05-07 13:41 | 51.38249 | -2.73337 | 595 ft | 12 kts | 165° |
| 2026-05-07 13:42 | 51.38216 | -2.73248 | 601 ft | 11 kts | 84° |
| 2026-05-07 13:42 | 51.38235 | -2.72720 | 616 ft | 82 kts | 86° |
| 2026-05-07 13:42 | 51.38283 | -2.71452 | 603 ft | 144 kts | 87° |
| 2026-05-07 13:42 | 51.38354 | -2.69658 | 949 ft | 165 kts | 89° |
| 2026-05-07 13:43 | 51.38415 | -2.67879 | 1745 ft | 158 kts | 91° |
| 2026-05-07 13:43 | 51.38467 | -2.66148 | 2436 ft | 157 kts | 91° |
| 2026-05-07 13:43 | 51.38515 | -2.64334 | 2839 ft | 168 kts | 91° |
| 2026-05-07 13:43 | 51.38570 | -2.62391 | 3205 ft | 183 kts | 92° |
| 2026-05-07 13:44 | 51.38629 | -2.60306 | 3548 ft | 199 kts | 91° |
| 2026-05-07 13:44 | 51.38446 | -2.57989 | 3887 ft | 211 kts | 121° |
| 2026-05-07 13:44 | 51.37369 | -2.56390 | 4163 ft | 224 kts | 165° |
| 2026-05-07 13:44 | 51.35789 | -2.56392 | 4577 ft | 237 kts | 203° |
| 2026-05-07 13:45 | 51.34523 | -2.58138 | 5112 ft | 254 kts | 239° |
| 2026-05-07 13:45 | 51.33969 | -2.60803 | 5973 ft | 258 kts | 254° |
| 2026-05-07 13:45 | 51.33599 | -2.63470 | 6855 ft | 258 kts | 253° |
| 2026-05-07 13:45 | 51.33186 | -2.66146 | 7695 ft | 258 kts | 252° |
| 2026-05-07 13:46 | 51.32703 | -2.68865 | 8553 ft | 258 kts | 251° |
| 2026-05-07 13:46 | 51.32171 | -2.71603 | 9391 ft | 258 kts | 250° |
| 2026-05-07 13:46 | 51.31608 | -2.74338 | 10203 ft | 259 kts | 250° |
| 2026-05-07 13:46 | 51.31030 | -2.77055 | 10802 ft | 268 kts | 250° |
| 2026-05-07 13:47 | 51.30393 | -2.80018 | 11142 ft | 286 kts | 250° |
| 2026-05-07 13:47 | 51.29724 | -2.83095 | 11455 ft | 303 kts | 250° |
| 2026-05-07 13:47 | 51.29005 | -2.86372 | 11756 ft | 320 kts | 250° |
| 2026-05-07 13:47 | 51.28252 | -2.89785 | 12147 ft | 332 kts | 250° |
| 2026-05-07 13:48 | 51.27392 | -2.93211 | 12832 ft | 335 kts | 240° |
| 2026-05-07 13:48 | 51.25842 | -2.95987 | 13576 ft | 340 kts | 220° |
| 2026-05-07 13:48 | 51.23739 | -2.97782 | 14331 ft | 348 kts | 204° |
| 2026-05-07 13:48 | 51.21386 | -2.98824 | 15038 ft | 351 kts | 200° |
| 2026-05-07 13:49 | 51.19015 | -2.99782 | 15671 ft | 354 kts | 200° |
| 2026-05-07 13:49 | 51.16637 | -3.00746 | 16296 ft | 356 kts | 200° |
| 2026-05-07 13:49 | 51.14211 | -3.01739 | 16930 ft | 357 kts | 201° |
| 2026-05-07 13:49 | 51.11830 | -3.02720 | 17535 ft | 359 kts | 201° |
| 2026-05-07 13:50 | 51.09398 | -3.03727 | 18134 ft | 360 kts | 201° |
| 2026-05-07 13:50 | 51.06966 | -3.04736 | 18715 ft | 362 kts | 201° |
| 2026-05-07 13:50 | 51.04538 | -3.05745 | 19277 ft | 363 kts | 201° |
| 2026-05-07 13:50 | 51.02089 | -3.06762 | 19825 ft | 365 kts | 202° |
| 2026-05-07 13:51 | 50.99603 | -3.07794 | 20344 ft | 367 kts | 202° |
| 2026-05-07 13:51 | 50.97128 | -3.08823 | 20836 ft | 370 kts | 202° |
| 2026-05-07 13:51 | 50.94635 | -3.09858 | 21318 ft | 372 kts | 202° |
| 2026-05-07 13:51 | 50.92117 | -3.10903 | 21793 ft | 375 kts | 202° |
| 2026-05-07 13:52 | 50.89596 | -3.11947 | 22257 ft | 377 kts | 202° |
| 2026-05-07 13:52 | 50.87028 | -3.13002 | 22727 ft | 379 kts | 202° |
| 2026-05-07 13:52 | 50.84460 | -3.14054 | 23185 ft | 381 kts | 203° |
| 2026-05-07 13:52 | 50.81895 | -3.15106 | 23631 ft | 383 kts | 203° |
| 2026-05-07 13:53 | 50.79344 | -3.16154 | 24063 ft | 384 kts | 203° |
| 2026-05-07 13:53 | 50.76723 | -3.17230 | 24491 ft | 386 kts | 203° |
| 2026-05-07 13:53 | 50.74136 | -3.18293 | 24897 ft | 387 kts | 203° |
| 2026-05-07 13:53 | 50.71481 | -3.19382 | 25297 ft | 389 kts | 204° |
| 2026-05-07 13:54 | 50.68875 | -3.20452 | 25674 ft | 390 kts | 204° |
| 2026-05-07 13:54 | 50.66228 | -3.21537 | 26041 ft | 391 kts | 204° |
| 2026-05-07 13:54 | 50.63587 | -3.22618 | 26393 ft | 393 kts | 204° |
| 2026-05-07 13:54 | 50.60936 | -3.23703 | 26732 ft | 394 kts | 204° |
| 2026-05-07 13:55 | 50.58258 | -3.24797 | 27052 ft | 395 kts | 204° |
| 2026-05-07 13:55 | 50.55587 | -3.25887 | 27350 ft | 397 kts | 204° |
| 2026-05-07 13:55 | 50.52913 | -3.26978 | 27637 ft | 398 kts | 204° |
| 2026-05-07 13:55 | 50.50220 | -3.28074 | 27913 ft | 399 kts | 204° |
| 2026-05-07 13:56 | 50.47528 | -3.29168 | 28242 ft | 398 kts | 204° |
| 2026-05-07 13:56 | 50.44862 | -3.30248 | 28632 ft | 396 kts | 205° |
| 2026-05-07 13:56 | 50.42210 | -3.31321 | 29024 ft | 394 kts | 205° |
| 2026-05-07 13:56 | 50.39543 | -3.32400 | 29403 ft | 392 kts | 205° |
| 2026-05-07 13:57 | 50.36917 | -3.33462 | 29766 ft | 390 kts | 205° |
| 2026-05-07 13:57 | 50.34298 | -3.34521 | 30123 ft | 388 kts | 205° |
| 2026-05-07 13:57 | 50.31668 | -3.35583 | 30476 ft | 386 kts | 205° |
| 2026-05-07 13:57 | 50.29071 | -3.36632 | 30818 ft | 385 kts | 206° |
| 2026-05-07 13:58 | 50.26532 | -3.37655 | 31149 ft | 383 kts | 206° |
| 2026-05-07 13:58 | 50.23975 | -3.38685 | 31475 ft | 381 kts | 206° |
| 2026-05-07 13:58 | 50.21403 | -3.39720 | 31791 ft | 379 kts | 206° |
| 2026-05-07 13:58 | 50.18866 | -3.40740 | 32089 ft | 378 kts | 206° |
| 2026-05-07 13:59 | 50.16299 | -3.41772 | 32346 ft | 377 kts | 206° |
| 2026-05-07 13:59 | 50.13755 | -3.42799 | 32594 ft | 377 kts | 207° |
| 2026-05-07 13:59 | 50.11216 | -3.43819 | 32854 ft | 376 kts | 207° |
| 2026-05-07 13:59 | 50.08672 | -3.44839 | 33116 ft | 374 kts | 207° |
| 2026-05-07 14:00 | 50.06196 | -3.45831 | 33348 ft | 373 kts | 207° |
| 2026-05-07 14:00 | 50.03616 | -3.46863 | 33542 ft | 373 kts | 207° |
| 2026-05-07 14:00 | 50.01079 | -3.47878 | 33708 ft | 374 kts | 207° |
| 2026-05-07 14:00 | 49.98541 | -3.48892 | 33871 ft | 374 kts | 207° |
| 2026-05-07 14:01 | 49.95983 | -3.49911 | 34029 ft | 374 kts | 207° |
| 2026-05-07 14:01 | 49.93469 | -3.50912 | 34172 ft | 374 kts | 207° |
| 2026-05-07 14:01 | 49.90933 | -3.51921 | 34300 ft | 375 kts | 207° |
| 2026-05-07 14:01 | 49.88366 | -3.52937 | 34429 ft | 375 kts | 207° |
| 2026-05-07 14:02 | 49.85803 | -3.53942 | 34566 ft | 376 kts | 207° |
| 2026-05-07 14:02 | 49.83260 | -3.54939 | 34691 ft | 376 kts | 207° |
| 2026-05-07 14:02 | 49.80703 | -3.55944 | 34808 ft | 377 kts | 207° |
| 2026-05-07 14:02 | 49.78117 | -3.56959 | 34923 ft | 377 kts | 207° |
| 2026-05-07 14:03 | 49.75561 | -3.57964 | 35020 ft | 378 kts | 207° |
| 2026-05-07 14:03 | 49.70459 | -3.59969 | 35023 ft | 378 kts | 207° |
| 2026-05-07 14:04 | 49.65367 | -3.61966 | 35019 ft | 378 kts | 207° |
| 2026-05-07 14:04 | 49.60284 | -3.63958 | 35008 ft | 378 kts | 207° |
| 2026-05-07 14:05 | 49.55166 | -3.65968 | 34998 ft | 379 kts | 206° |
| 2026-05-07 14:05 | 49.50030 | -3.67998 | 34990 ft | 380 kts | 206° |
| 2026-05-07 14:06 | 49.44914 | -3.70005 | 34987 ft | 380 kts | 206° |
| 2026-05-07 14:06 | 49.39781 | -3.72006 | 34986 ft | 380 kts | 206° |
| 2026-05-07 14:07 | 49.34665 | -3.73993 | 34985 ft | 380 kts | 206° |
| 2026-05-07 14:07 | 49.29543 | -3.75976 | 34985 ft | 380 kts | 206° |
| 2026-05-07 14:08 | 49.24411 | -3.77958 | 34985 ft | 380 kts | 206° |
| 2026-05-07 14:08 | 49.19260 | -3.79943 | 34985 ft | 380 kts | 206° |
| 2026-05-07 14:09 | 49.14103 | -3.81926 | 34985 ft | 380 kts | 206° |
| 2026-05-07 14:09 | 49.09002 | -3.83886 | 34982 ft | 382 kts | 206° |
| 2026-05-07 14:10 | 49.03804 | -3.85889 | 34980 ft | 389 kts | 206° |
| 2026-05-07 14:10 | 48.98472 | -3.87933 | 34980 ft | 397 kts | 205° |
| 2026-05-07 14:11 | 48.93081 | -3.89991 | 34984 ft | 404 kts | 205° |
| 2026-05-07 14:11 | 48.87613 | -3.92056 | 34985 ft | 406 kts | 204° |
| 2026-05-07 14:12 | 48.82109 | -3.94118 | 34986 ft | 406 kts | 204° |
| 2026-05-07 14:12 | 48.76646 | -3.96172 | 34985 ft | 406 kts | 204° |
| 2026-05-07 14:13 | 48.71127 | -3.98250 | 34985 ft | 407 kts | 205° |
| 2026-05-07 14:13 | 48.65661 | -4.00308 | 34985 ft | 406 kts | 205° |
| 2026-05-07 14:14 | 48.60206 | -4.02359 | 34985 ft | 406 kts | 204° |
| 2026-05-07 14:14 | 48.54684 | -4.04429 | 34985 ft | 406 kts | 205° |
| 2026-05-07 14:15 | 48.49180 | -4.06491 | 34986 ft | 406 kts | 204° |
| 2026-05-07 14:15 | 48.43679 | -4.08545 | 34986 ft | 407 kts | 205° |
| 2026-05-07 14:16 | 48.38215 | -4.10582 | 34986 ft | 406 kts | 204° |
| 2026-05-07 14:16 | 48.32727 | -4.12623 | 34983 ft | 406 kts | 205° |
| 2026-05-07 14:17 | 48.27231 | -4.14663 | 34983 ft | 406 kts | 205° |
| 2026-05-07 14:17 | 48.21728 | -4.16700 | 34981 ft | 406 kts | 205° |
| 2026-05-07 14:18 | 48.16234 | -4.18730 | 34979 ft | 406 kts | 205° |
| 2026-05-07 14:18 | 48.10714 | -4.20765 | 34979 ft | 406 kts | 205° |
| 2026-05-07 14:19 | 48.05242 | -4.22778 | 34979 ft | 406 kts | 205° |
| 2026-05-07 14:19 | 47.99721 | -4.24805 | 34978 ft | 406 kts | 205° |
| 2026-05-07 14:20 | 47.94198 | -4.26828 | 34978 ft | 405 kts | 205° |
| 2026-05-07 14:20 | 47.88710 | -4.28835 | 34979 ft | 406 kts | 205° |
| 2026-05-07 14:21 | 47.83165 | -4.30837 | 34978 ft | 403 kts | 205° |
| 2026-05-07 14:21 | 47.77725 | -4.32968 | 34979 ft | 404 kts | 206° |
| 2026-05-07 14:22 | 47.71337 | -4.35602 | 34979 ft | 404 kts | 206° |
| 2026-05-07 14:22 | 47.66813 | -4.37458 | 34978 ft | 404 kts | 206° |
| 2026-05-07 14:23 | 47.61343 | -4.39693 | 34978 ft | 404 kts | 206° |
| 2026-05-07 14:23 | 47.55901 | -4.41910 | 34978 ft | 404 kts | 206° |
| 2026-05-07 14:24 | 47.50438 | -4.44130 | 34979 ft | 404 kts | 206° |
| 2026-05-07 14:24 | 47.44967 | -4.46347 | 34979 ft | 404 kts | 206° |
| 2026-05-07 14:25 | 47.39525 | -4.48548 | 34979 ft | 404 kts | 206° |
| 2026-05-07 14:25 | 47.34054 | -4.50755 | 34978 ft | 404 kts | 206° |
| 2026-05-07 14:26 | 47.28578 | -4.52961 | 34978 ft | 404 kts | 206° |
| 2026-05-07 14:26 | 47.23136 | -4.55148 | 34978 ft | 404 kts | 206° |
| 2026-05-07 14:27 | 47.17693 | -4.57330 | 34978 ft | 404 kts | 206° |
| 2026-05-07 14:27 | 47.12207 | -4.59525 | 34978 ft | 405 kts | 206° |
| 2026-05-07 14:28 | 47.06741 | -4.61708 | 34979 ft | 404 kts | 206° |
| 2026-05-07 14:28 | 47.01255 | -4.63897 | 34975 ft | 405 kts | 206° |
| 2026-05-07 14:29 | 46.95795 | -4.66082 | 34973 ft | 404 kts | 204° |
| 2026-05-07 14:29 | 46.90297 | -4.68296 | 34973 ft | 408 kts | 203° |
| 2026-05-07 14:30 | 46.84719 | -4.70506 | 34976 ft | 413 kts | 202° |
| 2026-05-07 14:30 | 46.79094 | -4.72710 | 34978 ft | 414 kts | 202° |
| 2026-05-07 14:31 | 46.73463 | -4.74918 | 34977 ft | 414 kts | 202° |
| 2026-05-07 14:31 | 46.67866 | -4.77114 | 34977 ft | 414 kts | 202° |
| 2026-05-07 14:32 | 46.62215 | -4.79330 | 34978 ft | 414 kts | 202° |
| 2026-05-07 14:32 | 46.56609 | -4.81524 | 34977 ft | 414 kts | 202° |
| 2026-05-07 14:33 | 46.50990 | -4.83718 | 34978 ft | 413 kts | 202° |
| 2026-05-07 14:33 | 46.45388 | -4.85901 | 34978 ft | 413 kts | 203° |
| 2026-05-07 14:34 | 46.39807 | -4.88073 | 34979 ft | 411 kts | 203° |
| 2026-05-07 14:34 | 46.34211 | -4.90245 | 34979 ft | 411 kts | 203° |
| 2026-05-07 14:35 | 46.28648 | -4.92400 | 34979 ft | 410 kts | 203° |
| 2026-05-07 14:35 | 46.23080 | -4.94552 | 34977 ft | 408 kts | 203° |
| 2026-05-07 14:36 | 46.17558 | -4.96684 | 34978 ft | 407 kts | 203° |
| 2026-05-07 14:36 | 46.12035 | -4.98808 | 34980 ft | 407 kts | 203° |
| 2026-05-07 14:37 | 46.06505 | -5.00933 | 34979 ft | 406 kts | 203° |
| 2026-05-07 14:37 | 45.98236 | -5.04102 | 34978 ft | 405 kts | 203° |
| 2026-05-07 14:38 | 45.92722 | -5.06210 | 34978 ft | 405 kts | 203° |
| 2026-05-07 14:38 | 45.87230 | -5.08300 | 34978 ft | 405 kts | 203° |
| 2026-05-07 14:39 | 45.81747 | -5.10372 | 34973 ft | 405 kts | 203° |
| 2026-05-07 14:39 | 45.76229 | -5.12461 | 34963 ft | 405 kts | 203° |
| 2026-05-07 14:40 | 45.70718 | -5.14548 | 34945 ft | 405 kts | 203° |
| 2026-05-07 14:40 | 45.65213 | -5.16629 | 34923 ft | 405 kts | 203° |
| 2026-05-07 14:41 | 45.59681 | -5.18717 | 34899 ft | 405 kts | 203° |
| 2026-05-07 14:41 | 45.54198 | -5.20784 | 34882 ft | 405 kts | 203° |
| 2026-05-07 14:42 | 45.48682 | -5.22857 | 34873 ft | 405 kts | 203° |
| 2026-05-07 14:42 | 45.43203 | -5.24913 | 34870 ft | 405 kts | 203° |
| 2026-05-07 14:43 | 45.37654 | -5.26992 | 34869 ft | 405 kts | 203° |
| 2026-05-07 14:43 | 45.32158 | -5.29045 | 34868 ft | 405 kts | 203° |
| 2026-05-07 14:44 | 45.26659 | -5.31097 | 34869 ft | 405 kts | 203° |
| 2026-05-07 14:44 | 45.21151 | -5.33146 | 34868 ft | 405 kts | 203° |
| 2026-05-07 14:45 | 45.15628 | -5.35198 | 34869 ft | 405 kts | 203° |
| 2026-05-07 14:45 | 45.10120 | -5.37243 | 34868 ft | 406 kts | 202° |
| 2026-05-07 14:46 | 45.04591 | -5.39302 | 34867 ft | 410 kts | 201° |
| 2026-05-07 14:46 | 44.98945 | -5.41392 | 34866 ft | 415 kts | 201° |
| 2026-05-07 14:47 | 44.93276 | -5.43480 | 34868 ft | 420 kts | 200° |
| 2026-05-07 14:47 | 44.87561 | -5.45566 | 34869 ft | 421 kts | 200° |
| 2026-05-07 14:48 | 44.81828 | -5.47652 | 34869 ft | 420 kts | 200° |
| 2026-05-07 14:48 | 44.76102 | -5.49744 | 34868 ft | 420 kts | 200° |
| 2026-05-07 14:49 | 44.70380 | -5.51839 | 34867 ft | 420 kts | 200° |
| 2026-05-07 14:49 | 44.64654 | -5.53930 | 34868 ft | 420 kts | 200° |
| 2026-05-07 14:50 | 44.58960 | -5.56024 | 34869 ft | 420 kts | 201° |
| 2026-05-07 14:50 | 44.53277 | -5.58209 | 34868 ft | 420 kts | 201° |
| 2026-05-07 14:51 | 44.47582 | -5.60406 | 34870 ft | 420 kts | 201° |
| 2026-05-07 14:51 | 44.41893 | -5.62593 | 34868 ft | 420 kts | 201° |
| 2026-05-07 14:52 | 44.36222 | -5.64767 | 34868 ft | 420 kts | 201° |
| 2026-05-07 14:52 | 44.30548 | -5.66957 | 34870 ft | 421 kts | 200° |
| 2026-05-07 14:53 | 44.24884 | -5.69142 | 34867 ft | 421 kts | 200° |
| 2026-05-07 14:53 | 44.19181 | -5.71323 | 34868 ft | 421 kts | 200° |
| 2026-05-07 14:54 | 44.13495 | -5.73489 | 34869 ft | 421 kts | 200° |
| 2026-05-07 14:54 | 44.07874 | -5.75623 | 34868 ft | 421 kts | 200° |
| 2026-05-07 14:55 | 44.02169 | -5.77784 | 34870 ft | 420 kts | 200° |
| 2026-05-07 14:55 | 43.96450 | -5.79948 | 34870 ft | 428 kts | 200° |
| 2026-05-07 14:56 | 43.90620 | -5.82151 | 34870 ft | 436 kts | 200° |
| 2026-05-07 14:56 | 43.86293 | -5.83773 | 34869 ft | 438 kts | 200° |
| 2026-05-07 14:57 | 43.80784 | -5.85829 | 34869 ft | 438 kts | 200° |
| 2026-05-07 14:57 | 43.74911 | -5.88023 | 34869 ft | 438 kts | 200° |
| 2026-05-07 14:58 | 43.68997 | -5.90234 | 34868 ft | 438 kts | 200° |
| 2026-05-07 14:58 | 43.63099 | -5.92436 | 34868 ft | 438 kts | 200° |
| 2026-05-07 14:59 | 43.57214 | -5.94630 | 34868 ft | 439 kts | 200° |
| 2026-05-07 14:59 | 43.51503 | -5.96755 | 34869 ft | 438 kts | 200° |
| 2026-05-07 15:00 | 43.45608 | -5.98944 | 34869 ft | 439 kts | 200° |
| 2026-05-07 15:00 | 43.39769 | -6.01108 | 34868 ft | 438 kts | 200° |
| 2026-05-07 15:01 | 43.33867 | -6.03290 | 34868 ft | 438 kts | 200° |
| 2026-05-07 15:01 | 43.27945 | -6.05477 | 34869 ft | 439 kts | 200° |
| 2026-05-07 15:02 | 43.22131 | -6.07620 | 34869 ft | 438 kts | 200° |
| 2026-05-07 15:02 | 43.16168 | -6.09811 | 34869 ft | 438 kts | 200° |
| 2026-05-07 15:03 | 43.10349 | -6.11946 | 34869 ft | 438 kts | 200° |
| 2026-05-07 15:03 | 43.04444 | -6.14110 | 34869 ft | 438 kts | 200° |
| 2026-05-07 15:04 | 42.98611 | -6.16244 | 34869 ft | 438 kts | 200° |
| 2026-05-07 15:04 | 42.92696 | -6.18405 | 34869 ft | 437 kts | 199° |
| 2026-05-07 15:05 | 42.86939 | -6.20497 | 34869 ft | 436 kts | 199° |
| 2026-05-07 15:05 | 42.81173 | -6.22577 | 34869 ft | 436 kts | 199° |
| 2026-05-07 15:06 | 42.75250 | -6.24715 | 34869 ft | 436 kts | 199° |
| 2026-05-07 15:06 | 42.69419 | -6.26823 | 34870 ft | 436 kts | 199° |
| 2026-05-07 15:07 | 42.63782 | -6.28857 | 34868 ft | 436 kts | 199° |